sensor_id;sensor_type;location;lat;lon;timestamp;P1;durP1;ratioP1;P2;durP2;ratioP2
26478;SDS011;14163;-26.142;27.992;2023-09-08T00:10:37;7.87;;;6.50;;
26478;SDS011;14163;-26.142;27.992;2023-09-08T00:13:06;7.77;;;6.97;;
26478;SDS011;14163;-26.142;27.992;2023-09-08T00:15:35;9.73;;;7.20;;
26478;SDS011;14163;-26.142;27.992;2023-09-08T00:18:04;8.50;;;7.07;;
26478;SDS011;14163;-26.142;27.992;2023-09-08T00:20:33;10.30;;;7.43;;
26478;SDS011;14163;-26.142;27.992;2023-09-08T00:23:02;9.50;;;7.37;;
26478;SDS011;14163;-26.142;27.992;2023-09-08T00:25:31;8.73;;;6.83;;
26478;SDS011;14163;-26.142;27.992;2023-09-08T00:28:03;8.27;;;7.10;;
26478;SDS011;14163;-26.142;27.992;2023-09-08T00:30:32;8.47;;;6.83;;
26478;SDS011;14163;-26.142;27.992;2023-09-08T00:33:01;8.37;;;7.03;;
26478;SDS011;14163;-26.142;27.992;2023-09-08T00:35:33;7.33;;;6.63;;
26478;SDS011;14163;-26.142;27.992;2023-09-08T00:38:02;8.77;;;6.73;;
26478;SDS011;14163;-26.142;27.992;2023-09-08T00:40:31;8.93;;;6.73;;
26478;SDS011;14163;-26.142;27.992;2023-09-08T00:43:00;8.40;;;6.60;;
26478;SDS011;14163;-26.142;27.992;2023-09-08T00:45:31;9.43;;;6.30;;
26478;SDS011;14163;-26.142;27.992;2023-09-08T00:48:05;8.33;;;6.63;;
26478;SDS011;14163;-26.142;27.992;2023-09-08T00:50:34;6.70;;;6.10;;
26478;SDS011;14163;-26.142;27.992;2023-09-08T00:53:04;9.07;;;6.90;;
26478;SDS011;14163;-26.142;27.992;2023-09-08T00:55:34;7.00;;;6.20;;
26478;SDS011;14163;-26.142;27.992;2023-09-08T00:58:05;7.70;;;6.80;;
26478;SDS011;14163;-26.142;27.992;2023-09-08T01:00:34;11.17;;;6.77;;
26478;SDS011;14163;-26.142;27.992;2023-09-08T01:03:03;6.63;;;6.03;;
26478;SDS011;14163;-26.142;27.992;2023-09-08T01:05:32;8.03;;;6.90;;
26478;SDS011;14163;-26.142;27.992;2023-09-08T01:08:01;6.80;;;6.13;;
26478;SDS011;14163;-26.142;27.992;2023-09-08T01:10:31;10.43;;;6.37;;
26478;SDS011;14163;-26.142;27.992;2023-09-08T01:13:00;6.30;;;5.70;;
26478;SDS011;14163;-26.142;27.992;2023-09-08T01:15:31;6.83;;;5.63;;
26478;SDS011;14163;-26.142;27.992;2023-09-08T01:18:00;7.73;;;5.90;;
26478;SDS011;14163;-26.142;27.992;2023-09-08T01:20:30;7.63;;;5.20;;
26478;SDS011;14163;-26.142;27.992;2023-09-08T01:23:12;7.03;;;5.40;;
26478;SDS011;14163;-26.142;27.992;2023-09-08T01:25:51;8.10;;;5.80;;
26478;SDS011;14163;-26.142;27.992;2023-09-08T01:28:23;6.03;;;5.27;;
26478;SDS011;14163;-26.142;27.992;2023-09-08T01:30:54;5.13;;;4.30;;
26478;SDS011;14163;-26.142;27.992;2023-09-08T01:33:24;4.80;;;4.33;;
26478;SDS011;14163;-26.142;27.992;2023-09-08T01:35:54;5.30;;;4.80;;
26478;SDS011;14163;-26.142;27.992;2023-09-08T01:38:23;4.93;;;4.43;;
26478;SDS011;14163;-26.142;27.992;2023-09-08T01:40:54;4.40;;;4.03;;
26478;SDS011;14163;-26.142;27.992;2023-09-08T01:43:23;7.77;;;4.30;;
26478;SDS011;14163;-26.142;27.992;2023-09-08T01:45:52;4.90;;;4.50;;
26478;SDS011;14163;-26.142;27.992;2023-09-08T01:48:21;4.00;;;3.70;;
26478;SDS011;14163;-26.142;27.992;2023-09-08T01:50:50;7.23;;;4.80;;
26478;SDS011;14163;-26.142;27.992;2023-09-08T01:53:19;5.30;;;4.80;;
26478;SDS011;14163;-26.142;27.992;2023-09-08T01:55:48;6.07;;;4.83;;
26478;SDS011;14163;-26.142;27.992;2023-09-08T01:58:19;4.73;;;4.30;;
26478;SDS011;14163;-26.142;27.992;2023-09-08T02:00:48;5.07;;;4.57;;
26478;SDS011;14163;-26.142;27.992;2023-09-08T02:03:18;4.87;;;4.53;;
26478;SDS011;14163;-26.142;27.992;2023-09-08T02:05:47;5.30;;;4.80;;
26478;SDS011;14163;-26.142;27.992;2023-09-08T02:08:16;5.00;;;4.60;;
26478;SDS011;14163;-26.142;27.992;2023-09-08T02:10:45;6.10;;;5.13;;
26478;SDS011;14163;-26.142;27.992;2023-09-08T02:13:14;7.70;;;5.73;;
26478;SDS011;14163;-26.142;27.992;2023-09-08T02:15:45;5.50;;;5.00;;
26478;SDS011;14163;-26.142;27.992;2023-09-08T02:18:14;5.40;;;4.90;;
26478;SDS011;14163;-26.142;27.992;2023-09-08T02:20:43;5.53;;;5.00;;
26478;SDS011;14163;-26.142;27.992;2023-09-08T02:23:12;6.77;;;5.57;;
26478;SDS011;14163;-26.142;27.992;2023-09-08T02:25:41;7.93;;;5.77;;
26478;SDS011;14163;-26.142;27.992;2023-09-08T02:28:10;7.87;;;5.83;;
26478;SDS011;14163;-26.142;27.992;2023-09-08T02:30:39;5.50;;;4.90;;
26478;SDS011;14163;-26.142;27.992;2023-09-08T02:33:10;6.13;;;5.10;;
26478;SDS011;14163;-26.142;27.992;2023-09-08T02:35:39;7.33;;;5.33;;
26478;SDS011;14163;-26.142;27.992;2023-09-08T02:38:08;6.03;;;4.93;;
26478;SDS011;14163;-26.142;27.992;2023-09-08T02:40:37;5.90;;;5.33;;
26478;SDS011;14163;-26.142;27.992;2023-09-08T02:43:06;5.83;;;4.90;;
26478;SDS011;14163;-26.142;27.992;2023-09-08T02:45:35;8.83;;;6.60;;
26478;SDS011;14163;-26.142;27.992;2023-09-08T02:48:04;7.97;;;6.40;;
26478;SDS011;14163;-26.142;27.992;2023-09-08T02:50:35;7.03;;;5.57;;
26478;SDS011;14163;-26.142;27.992;2023-09-08T02:53:04;6.63;;;5.60;;
26478;SDS011;14163;-26.142;27.992;2023-09-08T02:55:33;5.70;;;5.00;;
26478;SDS011;14163;-26.142;27.992;2023-09-08T02:58:03;7.13;;;5.67;;
26478;SDS011;14163;-26.142;27.992;2023-09-08T03:00:32;6.93;;;6.00;;
26478;SDS011;14163;-26.142;27.992;2023-09-08T03:03:01;6.90;;;5.97;;
26478;SDS011;14163;-26.142;27.992;2023-09-08T03:05:31;7.43;;;5.30;;
26478;SDS011;14163;-26.142;27.992;2023-09-08T03:08:02;6.10;;;4.93;;
26478;SDS011;14163;-26.142;27.992;2023-09-08T03:10:33;7.57;;;5.77;;
26478;SDS011;14163;-26.142;27.992;2023-09-08T03:13:02;7.50;;;6.00;;
26478;SDS011;14163;-26.142;27.992;2023-09-08T03:15:31;7.50;;;5.40;;
26478;SDS011;14163;-26.142;27.992;2023-09-08T03:18:02;6.40;;;5.80;;
26478;SDS011;14163;-26.142;27.992;2023-09-08T03:20:31;9.67;;;5.87;;
26478;SDS011;14163;-26.142;27.992;2023-09-08T03:23:02;6.80;;;6.13;;
26478;SDS011;14163;-26.142;27.992;2023-09-08T03:25:32;8.80;;;5.27;;
26478;SDS011;14163;-26.142;27.992;2023-09-08T03:28:01;6.50;;;5.73;;
26478;SDS011;14163;-26.142;27.992;2023-09-08T03:30:30;7.10;;;5.20;;
26478;SDS011;14163;-26.142;27.992;2023-09-08T03:32:59;6.37;;;5.37;;
26478;SDS011;14163;-26.142;27.992;2023-09-08T03:35:28;6.13;;;5.43;;
26478;SDS011;14163;-26.142;27.992;2023-09-08T03:37:57;7.50;;;5.20;;
26478;SDS011;14163;-26.142;27.992;2023-09-08T03:40:28;5.47;;;4.90;;
26478;SDS011;14163;-26.142;27.992;2023-09-08T03:42:57;6.10;;;4.73;;
26478;SDS011;14163;-26.142;27.992;2023-09-08T03:45:26;9.03;;;4.37;;
26478;SDS011;14163;-26.142;27.992;2023-09-08T03:47:55;6.60;;;4.90;;
26478;SDS011;14163;-26.142;27.992;2023-09-08T03:50:24;5.50;;;4.57;;
26478;SDS011;14163;-26.142;27.992;2023-09-08T03:52:53;5.70;;;4.40;;
26478;SDS011;14163;-26.142;27.992;2023-09-08T03:55:22;6.50;;;4.63;;
26478;SDS011;14163;-26.142;27.992;2023-09-08T03:57:53;11.50;;;6.13;;
26478;SDS011;14163;-26.142;27.992;2023-09-08T04:00:22;5.50;;;5.00;;
26478;SDS011;14163;-26.142;27.992;2023-09-08T04:02:52;6.97;;;4.63;;
26478;SDS011;14163;-26.142;27.992;2023-09-08T04:05:21;5.73;;;4.77;;
26478;SDS011;14163;-26.142;27.992;2023-09-08T04:07:50;6.80;;;4.73;;
26478;SDS011;14163;-26.142;27.992;2023-09-08T04:10:19;6.73;;;4.80;;
26478;SDS011;14163;-26.142;27.992;2023-09-08T04:12:48;6.27;;;4.97;;
26478;SDS011;14163;-26.142;27.992;2023-09-08T04:15:18;7.23;;;5.30;;
26478;SDS011;14163;-26.142;27.992;2023-09-08T04:17:48;7.73;;;5.50;;
26478;SDS011;14163;-26.142;27.992;2023-09-08T04:20:17;8.93;;;5.47;;
26478;SDS011;14163;-26.142;27.992;2023-09-08T04:22:47;10.50;;;4.97;;
26478;SDS011;14163;-26.142;27.992;2023-09-08T04:25:16;6.57;;;4.90;;
26478;SDS011;14163;-26.142;27.992;2023-09-08T04:27:45;7.40;;;5.47;;
26478;SDS011;14163;-26.142;27.992;2023-09-08T04:30:14;10.97;;;5.17;;
26478;SDS011;14163;-26.142;27.992;2023-09-08T04:32:45;5.23;;;4.63;;
26478;SDS011;14163;-26.142;27.992;2023-09-08T04:35:14;8.57;;;5.67;;
26478;SDS011;14163;-26.142;27.992;2023-09-08T04:37:43;13.53;;;5.93;;
26478;SDS011;14163;-26.142;27.992;2023-09-08T04:40:12;8.73;;;5.47;;
26478;SDS011;14163;-26.142;27.992;2023-09-08T04:42:41;12.77;;;6.33;;
26478;SDS011;14163;-26.142;27.992;2023-09-08T04:45:11;9.53;;;6.23;;
26478;SDS011;14163;-26.142;27.992;2023-09-08T04:47:40;7.60;;;4.73;;
26478;SDS011;14163;-26.142;27.992;2023-09-08T04:50:11;4.50;;;4.10;;
26478;SDS011;14163;-26.142;27.992;2023-09-08T04:52:40;7.03;;;4.63;;
26478;SDS011;14163;-26.142;27.992;2023-09-08T04:55:09;9.20;;;5.77;;
26478;SDS011;14163;-26.142;27.992;2023-09-08T04:57:38;7.33;;;5.30;;
26478;SDS011;14163;-26.142;27.992;2023-09-08T05:00:08;9.30;;;5.10;;
26478;SDS011;14163;-26.142;27.992;2023-09-08T05:02:38;5.90;;;4.40;;
26478;SDS011;14163;-26.142;27.992;2023-09-08T05:05:07;12.70;;;5.37;;
26478;SDS011;14163;-26.142;27.992;2023-09-08T05:07:38;7.10;;;5.00;;
26478;SDS011;14163;-26.142;27.992;2023-09-08T05:10:07;7.77;;;4.47;;
26478;SDS011;14163;-26.142;27.992;2023-09-08T05:12:36;7.77;;;4.83;;
26478;SDS011;14163;-26.142;27.992;2023-09-08T05:15:06;7.67;;;4.80;;
26478;SDS011;14163;-26.142;27.992;2023-09-08T05:17:40;6.70;;;5.00;;
26478;SDS011;14163;-26.142;27.992;2023-09-08T05:20:09;9.37;;;4.97;;
26478;SDS011;14163;-26.142;27.992;2023-09-08T05:22:40;4.97;;;4.57;;
26478;SDS011;14163;-26.142;27.992;2023-09-08T05:25:09;5.60;;;4.60;;
26478;SDS011;14163;-26.142;27.992;2023-09-08T05:27:38;10.47;;;5.40;;
26478;SDS011;14163;-26.142;27.992;2023-09-08T05:30:08;8.67;;;5.27;;
26478;SDS011;14163;-26.142;27.992;2023-09-08T05:32:37;7.83;;;5.43;;
26478;SDS011;14163;-26.142;27.992;2023-09-08T05:35:06;11.73;;;6.20;;
26478;SDS011;14163;-26.142;27.992;2023-09-08T05:37:35;7.53;;;5.90;;
26478;SDS011;14163;-26.142;27.992;2023-09-08T05:40:07;11.63;;;7.60;;
26478;SDS011;14163;-26.142;27.992;2023-09-08T05:42:36;8.63;;;7.30;;
26478;SDS011;14163;-26.142;27.992;2023-09-08T05:45:05;10.67;;;6.97;;
26478;SDS011;14163;-26.142;27.992;2023-09-08T05:47:35;16.43;;;8.00;;
26478;SDS011;14163;-26.142;27.992;2023-09-08T05:50:05;13.20;;;7.67;;
26478;SDS011;14163;-26.142;27.992;2023-09-08T05:52:34;8.70;;;7.80;;
26478;SDS011;14163;-26.142;27.992;2023-09-08T05:55:04;11.07;;;7.37;;
26478;SDS011;14163;-26.142;27.992;2023-09-08T05:57:35;10.63;;;7.70;;
26478;SDS011;14163;-26.142;27.992;2023-09-08T06:00:04;10.00;;;7.60;;
26478;SDS011;14163;-26.142;27.992;2023-09-08T08:08:09;26.90;;;19.93;;
26478;SDS011;14163;-26.142;27.992;2023-09-08T08:10:38;22.20;;;19.80;;
26478;SDS011;14163;-26.142;27.992;2023-09-08T08:13:09;35.30;;;20.70;;
26478;SDS011;14163;-26.142;27.992;2023-09-08T08:15:39;23.73;;;18.40;;
26478;SDS011;14163;-26.142;27.992;2023-09-08T08:18:10;29.73;;;19.87;;
26478;SDS011;14163;-26.142;27.992;2023-09-08T08:20:39;27.50;;;19.10;;
26478;SDS011;14163;-26.142;27.992;2023-09-08T08:23:10;30.23;;;21.20;;
26478;SDS011;14163;-26.142;27.992;2023-09-08T08:25:39;33.00;;;20.63;;
26478;SDS011;14163;-26.142;27.992;2023-09-08T08:28:08;30.70;;;20.60;;
26478;SDS011;14163;-26.142;27.992;2023-09-08T08:30:37;25.63;;;19.93;;
26478;SDS011;14163;-26.142;27.992;2023-09-08T08:33:06;47.87;;;27.40;;
26478;SDS011;14163;-26.142;27.992;2023-09-08T08:35:36;41.43;;;30.50;;
26478;SDS011;14163;-26.142;27.992;2023-09-08T08:38:05;36.50;;;24.53;;
26478;SDS011;14163;-26.142;27.992;2023-09-08T08:40:36;66.00;;;50.20;;
26478;SDS011;14163;-26.142;27.992;2023-09-08T08:43:07;108.00;;;78.10;;
26478;SDS011;14163;-26.142;27.992;2023-09-08T08:45:36;41.57;;;31.17;;
26478;SDS011;14163;-26.142;27.992;2023-09-08T08:48:06;78.43;;;63.00;;
26478;SDS011;14163;-26.142;27.992;2023-09-08T08:50:37;36.97;;;28.60;;
26478;SDS011;14163;-26.142;27.992;2023-09-08T08:53:08;31.10;;;21.87;;
26478;SDS011;14163;-26.142;27.992;2023-09-08T08:55:39;35.03;;;23.20;;
26478;SDS011;14163;-26.142;27.992;2023-09-08T08:58:09;28.43;;;23.20;;
26478;SDS011;14163;-26.142;27.992;2023-09-08T09:00:40;25.43;;;20.23;;
26478;SDS011;14163;-26.142;27.992;2023-09-08T09:03:09;24.20;;;21.33;;
26478;SDS011;14163;-26.142;27.992;2023-09-08T09:05:39;25.80;;;21.63;;
26478;SDS011;14163;-26.142;27.992;2023-09-08T09:08:09;27.10;;;21.77;;
26478;SDS011;14163;-26.142;27.992;2023-09-08T09:10:41;28.50;;;23.87;;
26478;SDS011;14163;-26.142;27.992;2023-09-08T09:13:10;28.10;;;24.17;;
26478;SDS011;14163;-26.142;27.992;2023-09-08T09:15:39;27.70;;;23.93;;
26478;SDS011;14163;-26.142;27.992;2023-09-08T09:18:11;29.60;;;24.07;;
26478;SDS011;14163;-26.142;27.992;2023-09-08T09:20:40;28.77;;;24.10;;
26478;SDS011;14163;-26.142;27.992;2023-09-08T09:23:26;32.63;;;24.33;;
26478;SDS011;14163;-26.142;27.992;2023-09-08T09:25:58;36.63;;;26.57;;
26478;SDS011;14163;-26.142;27.992;2023-09-08T09:28:31;36.90;;;24.20;;
26478;SDS011;14163;-26.142;27.992;2023-09-08T09:31:00;31.60;;;26.30;;
26478;SDS011;14163;-26.142;27.992;2023-09-08T09:33:29;34.77;;;25.57;;
26478;SDS011;14163;-26.142;27.992;2023-09-08T09:35:58;33.27;;;25.70;;
26478;SDS011;14163;-26.142;27.992;2023-09-08T09:38:27;34.20;;;26.63;;
26478;SDS011;14163;-26.142;27.992;2023-09-08T09:40:58;35.30;;;27.50;;
26478;SDS011;14163;-26.142;27.992;2023-09-08T09:43:27;32.50;;;27.13;;
26478;SDS011;14163;-26.142;27.992;2023-09-08T09:45:57;35.87;;;27.80;;
26478;SDS011;14163;-26.142;27.992;2023-09-08T09:48:26;34.47;;;27.20;;
26478;SDS011;14163;-26.142;27.992;2023-09-08T09:50:56;37.40;;;26.10;;
26478;SDS011;14163;-26.142;27.992;2023-09-08T09:53:25;31.07;;;26.23;;
26478;SDS011;14163;-26.142;27.992;2023-09-08T09:55:55;27.80;;;24.90;;
26478;SDS011;14163;-26.142;27.992;2023-09-08T09:58:26;27.83;;;25.00;;
26478;SDS011;14163;-26.142;27.992;2023-09-08T10:00:56;31.37;;;25.67;;
26478;SDS011;14163;-26.142;27.992;2023-09-08T10:03:26;28.70;;;23.10;;
26478;SDS011;14163;-26.142;27.992;2023-09-08T10:05:56;24.03;;;21.20;;
26478;SDS011;14163;-26.142;27.992;2023-09-08T10:08:25;23.50;;;21.00;;
26478;SDS011;14163;-26.142;27.992;2023-09-08T10:10:54;32.90;;;21.47;;
26478;SDS011;14163;-26.142;27.992;2023-09-08T10:13:27;26.63;;;21.90;;
26478;SDS011;14163;-26.142;27.992;2023-09-08T10:15:59;26.27;;;22.37;;
26478;SDS011;14163;-26.142;27.992;2023-09-08T10:18:29;22.87;;;20.57;;
26478;SDS011;14163;-26.142;27.992;2023-09-08T10:21:02;28.97;;;20.90;;
26478;SDS011;14163;-26.142;27.992;2023-09-08T10:23:34;24.53;;;19.57;;
26478;SDS011;14163;-26.142;27.992;2023-09-08T10:26:06;24.93;;;20.83;;
26478;SDS011;14163;-26.142;27.992;2023-09-08T10:28:40;22.70;;;20.70;;
26478;SDS011;14163;-26.142;27.992;2023-09-08T10:31:09;24.47;;;21.17;;
26478;SDS011;14163;-26.142;27.992;2023-09-08T10:33:39;21.60;;;19.60;;
26478;SDS011;14163;-26.142;27.992;2023-09-08T10:36:10;24.57;;;19.30;;
26478;SDS011;14163;-26.142;27.992;2023-09-08T10:38:40;22.40;;;20.00;;
26478;SDS011;14163;-26.142;27.992;2023-09-08T10:41:28;20.20;;;18.33;;
26478;SDS011;14163;-26.142;27.992;2023-09-08T10:44:01;20.80;;;18.90;;
26478;SDS011;14163;-26.142;27.992;2023-09-08T10:46:32;23.27;;;20.70;;
26478;SDS011;14163;-26.142;27.992;2023-09-08T10:49:01;19.70;;;17.77;;
26478;SDS011;14163;-26.142;27.992;2023-09-08T10:51:32;21.43;;;19.43;;
26478;SDS011;14163;-26.142;27.992;2023-09-08T10:54:02;21.77;;;19.13;;
26478;SDS011;14163;-26.142;27.992;2023-09-08T10:56:46;21.17;;;19.17;;
26478;SDS011;14163;-26.142;27.992;2023-09-08T10:59:23;21.03;;;18.80;;
26478;SDS011;14163;-26.142;27.992;2023-09-08T11:01:56;21.23;;;19.23;;
26478;SDS011;14163;-26.142;27.992;2023-09-08T11:04:25;20.57;;;18.50;;
26478;SDS011;14163;-26.142;27.992;2023-09-08T11:06:58;21.97;;;19.60;;
26478;SDS011;14163;-26.142;27.992;2023-09-08T11:09:28;21.53;;;19.30;;
26478;SDS011;14163;-26.142;27.992;2023-09-08T11:12:02;20.17;;;18.40;;
26478;SDS011;14163;-26.142;27.992;2023-09-08T11:14:36;19.93;;;18.20;;
26478;SDS011;14163;-26.142;27.992;2023-09-08T11:17:05;21.13;;;19.07;;
26478;SDS011;14163;-26.142;27.992;2023-09-08T11:19:45;22.03;;;19.67;;
26478;SDS011;14163;-26.142;27.992;2023-09-08T11:22:15;19.90;;;18.03;;
26478;SDS011;14163;-26.142;27.992;2023-09-08T11:24:45;19.73;;;17.90;;
26478;SDS011;14163;-26.142;27.992;2023-09-08T11:27:14;18.97;;;17.03;;
26478;SDS011;14163;-26.142;27.992;2023-09-08T11:29:44;18.13;;;16.33;;
26478;SDS011;14163;-26.142;27.992;2023-09-08T11:32:14;16.77;;;15.07;;
26478;SDS011;14163;-26.142;27.992;2023-09-08T11:34:44;16.80;;;15.20;;
26478;SDS011;14163;-26.142;27.992;2023-09-08T11:37:14;27.17;;;15.93;;
26478;SDS011;14163;-26.142;27.992;2023-09-08T11:39:45;16.40;;;14.67;;
26478;SDS011;14163;-26.142;27.992;2023-09-08T11:42:14;16.77;;;15.13;;
26478;SDS011;14163;-26.142;27.992;2023-09-08T11:44:45;16.87;;;13.60;;
26478;SDS011;14163;-26.142;27.992;2023-09-08T11:47:16;16.53;;;14.13;;
26478;SDS011;14163;-26.142;27.992;2023-09-08T11:49:46;16.37;;;14.93;;
26478;SDS011;14163;-26.142;27.992;2023-09-08T11:52:15;16.40;;;14.93;;
26478;SDS011;14163;-26.142;27.992;2023-09-08T11:54:44;15.63;;;14.53;;
26478;SDS011;14163;-26.142;27.992;2023-09-08T11:57:13;16.20;;;14.80;;
26478;SDS011;14163;-26.142;27.992;2023-09-08T11:59:43;15.93;;;14.53;;
26478;SDS011;14163;-26.142;27.992;2023-09-08T12:02:15;17.87;;;16.27;;
26478;SDS011;14163;-26.142;27.992;2023-09-08T12:04:45;18.07;;;16.30;;
26478;SDS011;14163;-26.142;27.992;2023-09-08T12:07:14;18.33;;;15.37;;
26478;SDS011;14163;-26.142;27.992;2023-09-08T12:09:45;19.57;;;17.40;;
26478;SDS011;14163;-26.142;27.992;2023-09-08T12:12:14;18.77;;;17.07;;
26478;SDS011;14163;-26.142;27.992;2023-09-08T12:14:43;19.37;;;17.30;;
26478;SDS011;14163;-26.142;27.992;2023-09-08T12:17:14;18.40;;;16.80;;
26478;SDS011;14163;-26.142;27.992;2023-09-08T12:19:43;18.50;;;16.33;;
26478;SDS011;14163;-26.142;27.992;2023-09-08T12:22:13;21.07;;;18.97;;
26478;SDS011;14163;-26.142;27.992;2023-09-08T12:24:48;19.37;;;17.37;;
26478;SDS011;14163;-26.142;27.992;2023-09-08T12:27:16;18.97;;;17.23;;
26478;SDS011;14163;-26.142;27.992;2023-09-08T12:29:55;23.17;;;16.87;;
26478;SDS011;14163;-26.142;27.992;2023-09-08T12:32:26;18.73;;;15.10;;
26478;SDS011;14163;-26.142;27.992;2023-09-08T12:34:57;16.90;;;15.30;;
26478;SDS011;14163;-26.142;27.992;2023-09-08T12:37:29;18.87;;;16.67;;
26478;SDS011;14163;-26.142;27.992;2023-09-08T12:40:01;18.13;;;16.40;;
26478;SDS011;14163;-26.142;27.992;2023-09-08T12:42:30;17.83;;;15.47;;
26478;SDS011;14163;-26.142;27.992;2023-09-08T12:45:01;16.80;;;15.20;;
26478;SDS011;14163;-26.142;27.992;2023-09-08T12:47:30;21.63;;;14.37;;
26478;SDS011;14163;-26.142;27.992;2023-09-08T12:50:01;17.27;;;14.23;;
26478;SDS011;14163;-26.142;27.992;2023-09-08T12:52:30;17.77;;;14.50;;
26478;SDS011;14163;-26.142;27.992;2023-09-08T12:55:00;19.43;;;14.80;;
26478;SDS011;14163;-26.142;27.992;2023-09-08T12:57:29;16.10;;;14.53;;
26478;SDS011;14163;-26.142;27.992;2023-09-08T12:59:58;20.10;;;14.53;;
26478;SDS011;14163;-26.142;27.992;2023-09-08T13:02:30;15.40;;;13.90;;
26478;SDS011;14163;-26.142;27.992;2023-09-08T13:04:59;16.43;;;14.10;;
26478;SDS011;14163;-26.142;27.992;2023-09-08T13:07:28;16.00;;;14.53;;
26478;SDS011;14163;-26.142;27.992;2023-09-08T13:09:58;16.10;;;14.60;;
26478;SDS011;14163;-26.142;27.992;2023-09-08T13:12:27;16.33;;;14.70;;
26478;SDS011;14163;-26.142;27.992;2023-09-08T13:14:57;17.00;;;14.53;;
26478;SDS011;14163;-26.142;27.992;2023-09-08T13:17:28;15.97;;;14.63;;
26478;SDS011;14163;-26.142;27.992;2023-09-08T13:19:57;19.13;;;15.77;;
26478;SDS011;14163;-26.142;27.992;2023-09-08T13:22:26;19.03;;;16.60;;
26478;SDS011;14163;-26.142;27.992;2023-09-08T13:24:55;18.83;;;16.30;;
26478;SDS011;14163;-26.142;27.992;2023-09-08T13:27:24;19.90;;;15.23;;
26478;SDS011;14163;-26.142;27.992;2023-09-08T13:29:53;16.33;;;14.93;;
26478;SDS011;14163;-26.142;27.992;2023-09-08T13:32:36;15.13;;;13.73;;
26478;SDS011;14163;-26.142;27.992;2023-09-08T13:35:05;16.47;;;13.70;;
26478;SDS011;14163;-26.142;27.992;2023-09-08T13:37:35;17.60;;;15.70;;
26478;SDS011;14163;-26.142;27.992;2023-09-08T13:40:05;15.60;;;14.10;;
26478;SDS011;14163;-26.142;27.992;2023-09-08T13:42:35;15.10;;;13.70;;
26478;SDS011;14163;-26.142;27.992;2023-09-08T13:45:04;17.67;;;15.77;;
26478;SDS011;14163;-26.142;27.992;2023-09-08T13:47:34;16.40;;;14.80;;
26478;SDS011;14163;-26.142;27.992;2023-09-08T13:50:05;15.07;;;13.67;;
26478;SDS011;14163;-26.142;27.992;2023-09-08T13:52:34;15.50;;;13.87;;
26478;SDS011;14163;-26.142;27.992;2023-09-08T13:55:05;16.07;;;14.37;;
26478;SDS011;14163;-26.142;27.992;2023-09-08T13:57:34;15.17;;;13.77;;
26478;SDS011;14163;-26.142;27.992;2023-09-08T14:00:04;16.30;;;14.73;;
26478;SDS011;14163;-26.142;27.992;2023-09-08T14:02:36;16.00;;;14.50;;
26478;SDS011;14163;-26.142;27.992;2023-09-08T16:22:34;27.57;;;22.20;;
26478;SDS011;14163;-26.142;27.992;2023-09-08T16:25:03;24.30;;;20.77;;
26478;SDS011;14163;-26.142;27.992;2023-09-08T16:27:33;26.87;;;23.97;;
26478;SDS011;14163;-26.142;27.992;2023-09-08T16:30:03;26.37;;;23.10;;
26478;SDS011;14163;-26.142;27.992;2023-09-08T16:32:33;28.03;;;21.73;;
26478;SDS011;14163;-26.142;27.992;2023-09-08T16:35:02;32.10;;;22.60;;
26478;SDS011;14163;-26.142;27.992;2023-09-08T16:37:33;27.83;;;24.67;;
26478;SDS011;14163;-26.142;27.992;2023-09-08T16:40:02;31.97;;;24.67;;
26478;SDS011;14163;-26.142;27.992;2023-09-08T16:42:31;28.37;;;24.53;;
26478;SDS011;14163;-26.142;27.992;2023-09-08T16:45:00;24.40;;;21.87;;
26478;SDS011;14163;-26.142;27.992;2023-09-08T16:47:30;24.93;;;22.43;;
26478;SDS011;14163;-26.142;27.992;2023-09-08T16:49:59;26.33;;;23.40;;
26478;SDS011;14163;-26.142;27.992;2023-09-08T16:52:29;29.23;;;23.60;;
26478;SDS011;14163;-26.142;27.992;2023-09-08T16:55:00;27.17;;;24.23;;
26478;SDS011;14163;-26.142;27.992;2023-09-08T16:57:29;26.90;;;24.30;;
26478;SDS011;14163;-26.142;27.992;2023-09-08T16:59:58;27.00;;;24.07;;
26478;SDS011;14163;-26.142;27.992;2023-09-08T17:02:27;28.10;;;24.83;;
26478;SDS011;14163;-26.142;27.992;2023-09-08T17:04:56;30.57;;;26.27;;
26478;SDS011;14163;-26.142;27.992;2023-09-08T17:07:25;39.20;;;31.20;;
26478;SDS011;14163;-26.142;27.992;2023-09-08T17:09:55;41.90;;;36.33;;
26478;SDS011;14163;-26.142;27.992;2023-09-08T17:12:25;43.47;;;38.80;;
26478;SDS011;14163;-26.142;27.992;2023-09-08T17:14:54;49.73;;;40.43;;
26478;SDS011;14163;-26.142;27.992;2023-09-08T17:17:24;45.77;;;40.80;;
26478;SDS011;14163;-26.142;27.992;2023-09-08T17:19:53;44.07;;;39.23;;
26478;SDS011;14163;-26.142;27.992;2023-09-08T17:22:22;46.10;;;40.77;;
26478;SDS011;14163;-26.142;27.992;2023-09-08T17:24:52;50.10;;;41.57;;
26478;SDS011;14163;-26.142;27.992;2023-09-08T17:27:21;47.47;;;40.70;;
26478;SDS011;14163;-26.142;27.992;2023-09-08T17:29:51;49.13;;;41.03;;
26478;SDS011;14163;-26.142;27.992;2023-09-08T17:32:20;46.10;;;41.10;;
26478;SDS011;14163;-26.142;27.992;2023-09-08T17:34:49;51.23;;;40.93;;
26478;SDS011;14163;-26.142;27.992;2023-09-08T17:37:18;53.13;;;42.63;;
26478;SDS011;14163;-26.142;27.992;2023-09-08T17:39:47;55.77;;;42.33;;
26478;SDS011;14163;-26.142;27.992;2023-09-08T17:42:16;51.87;;;44.80;;
26478;SDS011;14163;-26.142;27.992;2023-09-08T17:44:45;53.30;;;45.60;;
26478;SDS011;14163;-26.142;27.992;2023-09-08T17:47:16;49.30;;;43.23;;
26478;SDS011;14163;-26.142;27.992;2023-09-08T17:49:48;48.53;;;41.20;;
26478;SDS011;14163;-26.142;27.992;2023-09-08T17:52:20;44.87;;;39.47;;
26478;SDS011;14163;-26.142;27.992;2023-09-08T17:54:49;46.47;;;38.77;;
26478;SDS011;14163;-26.142;27.992;2023-09-08T17:57:18;44.03;;;39.47;;
26478;SDS011;14163;-26.142;27.992;2023-09-08T17:59:47;49.87;;;37.40;;
26478;SDS011;14163;-26.142;27.992;2023-09-08T18:02:18;40.60;;;36.20;;
26478;SDS011;14163;-26.142;27.992;2023-09-08T18:04:47;41.90;;;37.40;;
26478;SDS011;14163;-26.142;27.992;2023-09-08T18:07:16;41.33;;;36.90;;
26478;SDS011;14163;-26.142;27.992;2023-09-08T18:09:45;42.83;;;37.63;;
26478;SDS011;14163;-26.142;27.992;2023-09-08T18:12:14;42.50;;;38.00;;
26478;SDS011;14163;-26.142;27.992;2023-09-08T18:14:43;41.87;;;36.93;;
26478;SDS011;14163;-26.142;27.992;2023-09-08T18:17:12;46.77;;;37.30;;
26478;SDS011;14163;-26.142;27.992;2023-09-08T18:19:43;48.43;;;38.60;;
26478;SDS011;14163;-26.142;27.992;2023-09-08T18:22:12;44.87;;;39.93;;
26478;SDS011;14163;-26.142;27.992;2023-09-08T18:24:41;49.60;;;43.80;;
26478;SDS011;14163;-26.142;27.992;2023-09-08T18:27:10;50.00;;;44.60;;
26478;SDS011;14163;-26.142;27.992;2023-09-08T18:29:39;53.80;;;45.73;;
26478;SDS011;14163;-26.142;27.992;2023-09-08T18:32:08;52.17;;;46.63;;
26478;SDS011;14163;-26.142;27.992;2023-09-08T18:34:37;49.80;;;44.90;;
26478;SDS011;14163;-26.142;27.992;2023-09-08T18:37:09;48.40;;;43.40;;
26478;SDS011;14163;-26.142;27.992;2023-09-08T18:39:38;45.37;;;40.87;;
26478;SDS011;14163;-26.142;27.992;2023-09-08T18:42:07;49.20;;;41.20;;
26478;SDS011;14163;-26.142;27.992;2023-09-08T18:44:36;43.50;;;38.83;;
26478;SDS011;14163;-26.142;27.992;2023-09-08T18:47:07;47.60;;;42.57;;
26478;SDS011;14163;-26.142;27.992;2023-09-08T18:49:37;54.23;;;48.33;;
26478;SDS011;14163;-26.142;27.992;2023-09-08T18:52:07;89.67;;;78.17;;
26478;SDS011;14163;-26.142;27.992;2023-09-08T18:54:38;81.47;;;72.93;;